Time;durP1;ratioP1;P1;durP2;ratioP2;P2;SDS_P1;SDS_P2;PMS_P1;PMS_P2;Temp;Humidity;BMP_temperature;BMP_pressure;BME280_temperature;BME280_humidity;BME280_pressure;Samples;Min_cycle;Max_cycle;Signal;HPM_P1;HPM_P2
2023/08/02 00:04:32;;;;;;;4.27;2.50;;;;;;;;;;10551665;28;20040;-84
2023/08/02 00:09:33;;;;;;;3.23;2.67;;;;;;;;;;10573873;28;20311;-83
2023/08/02 00:14:34;;;;;;;8.98;3.03;;;;;;;;;;10549780;28;20059;-84
2023/08/02 00:19:36;;;;;;;5.13;3.27;;;;;;;;;;10533978;28;20039;-84
2023/08/02 00:24:36;;;;;;;4.88;3.00;;;;;;;;;;10555517;28;20036;-77
2023/08/02 00:29:36;;;;;;;4.90;3.07;;;;;;;;;;10547322;28;20114;-79
2023/08/02 00:34:36;;;;;;;6.07;3.00;;;;;;;;;;10548629;28;20031;-78
2023/08/02 00:39:37;;;;;;;4.40;2.80;;;;;;;;;;10534463;28;20043;-77
2023/08/02 00:44:37;;;;;;;5.57;2.70;;;;;;;;;;10546263;27;20058;-78
2023/08/02 00:49:38;;;;;;;6.67;3.50;;;;;;;;;;10545137;28;20388;-78
2023/08/02 00:54:39;;;;;;;5.63;3.10;;;;;;;;;;10546602;28;20309;-78
2023/08/02 00:59:40;;;;;;;5.65;3.63;;;;;;;;;;10547686;28;20592;-77
2023/08/02 01:04:40;;;;;;;4.18;3.10;;;;;;;;;;10534448;28;20050;-77
2023/08/02 01:09:44;;;;;;;6.20;3.50;;;;;;;;;;10532282;28;20032;-78
2023/08/02 01:14:47;;;;;;;5.15;3.22;;;;;;;;;;10546884;28;20085;-78
2023/08/02 01:19:47;;;;;;;6.43;3.70;;;;;;;;;;10547720;28;20395;-78
2023/08/02 01:24:48;;;;;;;4.82;3.38;;;;;;;;;;10546639;28;20035;-77
2023/08/02 01:29:50;;;;;;;5.70;3.20;;;;;;;;;;10547000;27;20038;-77
2023/08/02 01:34:51;;;;;;;6.50;3.30;;;;;;;;;;10542419;28;20319;-78
2023/08/02 01:39:51;;;;;;;4.15;3.20;;;;;;;;;;10549226;28;20551;-79
2023/08/02 01:44:51;;;;;;;6.83;3.37;;;;;;;;;;10546699;28;20059;-80
2023/08/02 01:49:52;;;;;;;5.90;3.30;;;;;;;;;;10544821;28;20069;-78
2023/08/02 01:54:52;;;;;;;4.33;3.13;;;;;;;;;;10547234;28;20766;-78
2023/08/02 01:59:52;;;;;;;5.00;3.13;;;;;;;;;;10550857;28;20321;-78
2023/08/02 02:04:53;;;;;;;7.40;4.05;;;;;;;;;;10528299;28;20297;-79
2023/08/02 02:09:53;;;;;;;4.10;3.30;;;;;;;;;;10543651;28;20104;-79
2023/08/02 02:14:54;;;;;;;6.67;3.40;;;;;;;;;;10540112;27;20150;-78
2023/08/02 02:19:54;;;;;;;5.70;3.40;;;;;;;;;;10525842;28;20081;-78
2023/08/02 02:24:54;;;;;;;7.27;3.50;;;;;;;;;;10545128;28;20248;-79
2023/08/02 02:29:55;;;;;;;5.77;3.70;;;;;;;;;;10528938;28;20452;-78
2023/08/02 02:34:55;;;;;;;4.90;3.50;;;;;;;;;;10542596;28;20563;-78
2023/08/02 02:39:55;;;;;;;6.90;3.73;;;;;;;;;;10543265;28;20150;-78
2023/08/02 02:44:56;;;;;;;6.28;3.63;;;;;;;;;;10543171;28;20092;-77
2023/08/02 02:49:56;;;;;;;4.53;3.63;;;;;;;;;;10556763;27;20032;-77
2023/08/02 02:54:56;;;;;;;5.97;3.80;;;;;;;;;;10544080;28;21136;-77
2023/08/02 02:59:57;;;;;;;5.30;3.90;;;;;;;;;;10543332;28;20838;-79
2023/08/02 03:04:57;;;;;;;4.63;3.65;;;;;;;;;;10543628;28;20605;-78
2023/08/02 03:09:57;;;;;;;5.43;4.10;;;;;;;;;;10544712;28;20053;-80
2023/08/02 03:14:58;;;;;;;6.38;4.20;;;;;;;;;;10540885;28;20035;-78
2023/08/02 03:20:00;;;;;;;5.63;3.93;;;;;;;;;;10540791;28;20059;-79
2023/08/02 03:25:01;;;;;;;8.70;4.30;;;;;;;;;;10549974;28;20460;-81
2023/08/02 03:30:01;;;;;;;4.13;3.10;;;;;;;;;;10530613;28;20055;-79
2023/08/02 03:35:02;;;;;;;6.27;3.83;;;;;;;;;;10540481;28;20281;-80
2023/08/02 03:40:02;;;;;;;7.23;4.47;;;;;;;;;;10545744;28;20126;-79
2023/08/02 03:45:03;;;;;;;5.80;4.28;;;;;;;;;;10541641;28;20309;-78
2023/08/02 03:50:03;;;;;;;5.03;4.00;;;;;;;;;;10547023;28;20027;-80
2023/08/02 03:55:05;;;;;;;5.77;4.27;;;;;;;;;;10549780;28;20064;-78
2023/08/02 04:00:06;;;;;;;5.38;4.05;;;;;;;;;;10550458;28;20089;-79
2023/08/02 04:05:12;;;;;;;6.97;3.78;;;;;;;;;;10535798;28;20055;-81
2023/08/02 04:10:13;;;;;;;6.00;3.50;;;;;;;;;;10549083;28;20085;-79
2023/08/02 04:15:14;;;;;;;5.47;3.83;;;;;;;;;;10533855;28;20135;-78
2023/08/02 04:20:14;;;;;;;5.13;3.43;;;;;;;;;;10564075;28;20058;-78
2023/08/02 04:25:15;;;;;;;5.70;3.47;;;;;;;;;;10556206;28;20043;-79
2023/08/02 04:30:15;;;;;;;4.80;3.58;;;;;;;;;;10554615;28;20118;-76
2023/08/02 04:35:16;;;;;;;4.55;3.30;;;;;;;;;;10551302;28;20047;-77
2023/08/02 04:40:16;;;;;;;5.03;3.20;;;;;;;;;;10550709;28;20047;-79
2023/08/02 04:45:17;;;;;;;4.93;2.97;;;;;;;;;;10554089;28;20041;-78
2023/08/02 04:50:17;;;;;;;5.10;3.33;;;;;;;;;;10550056;27;20081;-78
2023/08/02 04:55:17;;;;;;;5.87;3.10;;;;;;;;;;10550771;28;20036;-78
2023/08/02 05:00:18;;;;;;;7.50;3.80;;;;;;;;;;10527349;28;20049;-78
2023/08/02 05:05:20;;;;;;;4.68;3.15;;;;;;;;;;10526193;28;20044;-79
2023/08/02 05:10:20;;;;;;;4.35;3.40;;;;;;;;;;10551404;28;20209;-78
2023/08/02 05:15:20;;;;;;;4.17;3.10;;;;;;;;;;10547957;27;20034;-79
2023/08/02 05:20:21;;;;;;;6.13;3.20;;;;;;;;;;10550003;28;20746;-79
2023/08/02 05:25:21;;;;;;;3.50;3.00;;;;;;;;;;10552625;27;20282;-81
2023/08/02 05:30:21;;;;;;;6.13;2.97;;;;;;;;;;10531705;28;20047;-79
2023/08/02 05:35:25;;;;;;;3.60;2.97;;;;;;;;;;10550188;28;20050;-79
2023/08/02 05:40:26;;;;;;;3.88;2.65;;;;;;;;;;10550134;28;20775;-77
2023/08/02 05:45:26;;;;;;;5.00;2.57;;;;;;;;;;10549657;28;20043;-77
2023/08/02 05:50:28;;;;;;;3.17;2.43;;;;;;;;;;10543865;28;20310;-79
2023/08/02 05:55:28;;;;;;;4.18;2.75;;;;;;;;;;10554289;28;20076;-76
2023/08/02 06:00:29;;;;;;;5.63;2.83;;;;;;;;;;10546727;28;20051;-78
2023/08/02 06:05:29;;;;;;;4.32;2.58;;;;;;;;;;10548655;28;20845;-79
2023/08/02 06:10:30;;;;;;;5.87;2.77;;;;;;;;;;10543577;28;20063;-78
2023/08/02 06:15:31;;;;;;;3.67;2.63;;;;;;;;;;10557343;28;20047;-78
2023/08/02 06:20:31;;;;;;;5.68;2.60;;;;;;;;;;10583176;28;20062;-80
2023/08/02 06:25:32;;;;;;;4.73;2.90;;;;;;;;;;10553701;28;20040;-78
2023/08/02 06:30:32;;;;;;;5.68;3.05;;;;;;;;;;10530735;28;20277;-79
2023/08/02 06:35:34;;;;;;;3.47;2.65;;;;;;;;;;10530211;28;20027;-81
2023/08/02 06:40:35;;;;;;;3.72;2.70;;;;;;;;;;10533503;28;20113;-78
2023/08/02 06:45:36;;;;;;;4.47;2.80;;;;;;;;;;10546734;27;20040;-80
2023/08/02 06:50:37;;;;;;;5.15;2.63;;;;;;;;;;10552027;28;20296;-82
2023/08/02 06:55:38;;;;;;;4.93;2.77;;;;;;;;;;10540206;28;20041;-82
2023/08/02 07:00:39;;;;;;;6.65;2.80;;;;;;;;;;10560204;28;20311;-81
2023/08/02 07:05:39;;;;;;;3.50;2.47;;;;;;;;;;10534430;28;20090;-82
2023/08/02 07:10:40;;;;;;;4.83;2.60;;;;;;;;;;10558401;28;20627;-80
2023/08/02 07:15:40;;;;;;;3.97;2.50;;;;;;;;;;10553482;28;20281;-79
2023/08/02 07:20:42;;;;;;;6.20;2.88;;;;;;;;;;10577429;28;20424;-82
2023/08/02 07:25:45;;;;;;;5.00;2.95;;;;;;;;;;10575516;27;20365;-82
2023/08/02 07:30:45;;;;;;;4.30;3.15;;;;;;;;;;10586343;28;20121;-81
2023/08/02 07:35:46;;;;;;;3.10;2.80;;;;;;;;;;10557823;28;20604;-82
2023/08/02 07:40:47;;;;;;;6.10;3.15;;;;;;;;;;10540058;28;20313;-82
2023/08/02 07:45:48;;;;;;;5.38;3.13;;;;;;;;;;10547587;28;20051;-82
2023/08/02 07:50:49;;;;;;;5.50;2.97;;;;;;;;;;10545129;28;20047;-82
2023/08/02 07:55:58;;;;;;;4.47;2.90;;;;;;;;;;10510180;28;20361;-83
2023/08/02 08:01:06;;;;;;;4.07;2.97;;;;;;;;;;10548937;28;20051;-84
2023/08/02 08:06:10;;;;;;;3.55;2.90;;;;;;;;;;10554800;28;20131;-84
2023/08/02 08:11:14;;;;;;;6.10;3.45;;;;;;;;;;10551300;28;20147;-84
2023/08/02 08:16:14;;;;;;;5.72;3.63;;;;;;;;;;10551813;28;20043;-81
2023/08/02 08:21:15;;;;;;;5.37;3.50;;;;;;;;;;10546055;28;21347;-79
2023/08/02 08:26:15;;;;;;;7.73;4.00;;;;;;;;;;10543796;28;20063;-84
2023/08/02 08:31:15;;;;;;;5.03;3.57;;;;;;;;;;10555004;28;20142;-82
2023/08/02 08:36:16;;;;;;;5.50;4.20;;;;;;;;;;10548693;28;20038;-79
2023/08/02 08:41:18;;;;;;;5.15;3.60;;;;;;;;;;10572764;28;20317;-79
2023/08/02 08:46:19;;;;;;;7.95;4.20;;;;;;;;;;10577899;28;20035;-80
2023/08/02 08:51:21;;;;;;;6.82;4.32;;;;;;;;;;10559060;28;20028;-77
2023/08/02 08:56:25;;;;;;;5.67;4.10;;;;;;;;;;10535562;28;20078;-76
2023/08/02 09:01:25;;;;;;;7.22;4.47;;;;;;;;;;10562490;28;20605;-77
2023/08/02 09:06:26;;;;;;;7.77;4.87;;;;;;;;;;10544683;28;20047;-78
2023/08/02 09:11:27;;;;;;;5.20;3.63;;;;;;;;;;10531067;28;20036;-80
2023/08/02 09:16:28;;;;;;;6.53;4.28;;;;;;;;;;10552656;28;20055;-78
2023/08/02 09:21:28;;;;;;;7.83;4.93;;;;;;;;;;10529138;28;20086;-77
2023/08/02 09:26:28;;;;;;;6.47;4.80;;;;;;;;;;10532221;28;20062;-77
2023/08/02 09:31:30;;;;;;;6.20;4.73;;;;;;;;;;10531518;28;20305;-77
2023/08/02 09:36:31;;;;;;;9.00;5.20;;;;;;;;;;10542926;28;20716;-77
2023/08/02 09:41:31;;;;;;;8.40;5.57;;;;;;;;;;10545018;28;20075;-82
2023/08/02 09:46:35;;;;;;;8.27;5.80;;;;;;;;;;10548187;28;20055;-78
2023/08/02 09:51:39;;;;;;;10.90;5.80;;;;;;;;;;10545271;28;20039;-77
2023/08/02 09:56:41;;;;;;;9.18;6.00;;;;;;;;;;10547141;28;20035;-79
2023/08/02 10:01:42;;;;;;;8.18;5.80;;;;;;;;;;10531296;28;20044;-78
2023/08/02 10:06:47;;;;;;;8.75;5.90;;;;;;;;;;10546754;28;20028;-81
2023/08/02 10:11:56;;;;;;;9.20;5.88;;;;;;;;;;10553766;28;20039;-81
2023/08/02 10:17:01;;;;;;;8.20;5.63;;;;;;;;;;10547265;28;20511;-77
2023/08/02 10:22:03;;;;;;;8.82;5.65;;;;;;;;;;10545194;28;20154;-79
2023/08/02 10:27:05;;;;;;;7.57;5.60;;;;;;;;;;10547279;28;20391;-78
2023/08/02 10:32:16;;;;;;;7.72;5.57;;;;;;;;;;10548303;28;20116;-79
2023/08/02 10:37:18;;;;;;;9.57;5.93;;;;;;;;;;10548307;28;20047;-79
2023/08/02 10:42:29;;;;;;;9.93;6.45;;;;;;;;;;10546208;28;20035;-80
2023/08/02 10:47:33;;;;;;;9.38;5.15;;;;;;;;;;10544811;28;20052;-79
2023/08/02 10:52:35;;;;;;;8.75;5.95;;;;;;;;;;10545239;28;20032;-78
2023/08/02 10:57:38;;;;;;;8.20;6.30;;;;;;;;;;10546053;28;20127;-78
2023/08/02 11:02:48;;;;;;;10.38;6.63;;;;;;;;;;10540385;28;20953;-79
2023/08/02 11:07:59;;;;;;;7.47;6.03;;;;;;;;;;10544384;28;20039;-77
2023/08/02 11:12:59;;;;;;;11.18;6.10;;;;;;;;;;10542634;28;20042;-78
2023/08/02 11:17:59;;;;;;;8.87;6.27;;;;;;;;;;10544897;28;20061;-77
2023/08/02 11:23:00;;;;;;;8.95;5.60;;;;;;;;;;10544798;28;20301;-77
2023/08/02 11:28:02;;;;;;;8.10;5.90;;;;;;;;;;10546623;28;20042;-81
2023/08/02 11:33:03;;;;;;;7.97;5.65;;;;;;;;;;10541661;28;20031;-80
2023/08/02 11:38:04;;;;;;;12.65;7.05;;;;;;;;;;10540853;28;20031;-81
2023/08/02 11:43:04;;;;;;;8.50;6.20;;;;;;;;;;10573078;28;20151;-79
2023/08/02 11:53:08;;;;;;;8.32;6.50;;;;;;;;;;10399521;28;20049;-76
2023/08/02 11:58:09;;;;;;;7.57;6.10;;;;;;;;;;10405102;28;20030;-80
2023/08/02 12:03:13;;;;;;;9.50;7.00;;;;;;;;;;10396087;28;20036;-80
2023/08/02 12:08:17;;;;;;;11.13;7.15;;;;;;;;;;10486985;23;20264;-81
2023/08/02 12:13:20;;;;;;;8.65;6.15;;;;;;;;;;10428598;28;20409;-81
2023/08/02 12:18:21;;;;;;;9.00;6.30;;;;;;;;;;10421453;28;20055;-78
2023/08/02 12:23:32;;;;;;;11.48;7.68;;;;;;;;;;10415922;28;20298;-78
2023/08/02 12:28:45;;;;;;;12.05;7.18;;;;;;;;;;10416134;28;20040;-78
2023/08/02 12:33:46;;;;;;;10.55;7.00;;;;;;;;;;10415606;28;20052;-78
2023/08/02 12:38:46;;;;;;;9.93;7.00;;;;;;;;;;10417648;28;20069;-78
2023/08/02 12:43:46;;;;;;;9.33;6.83;;;;;;;;;;10409464;28;20041;-80
2023/08/02 12:48:47;;;;;;;9.53;6.53;;;;;;;;;;10398843;28;20037;-77
2023/08/02 12:53:47;;;;;;;10.63;6.43;;;;;;;;;;10413935;28;20271;-80
2023/08/02 12:58:47;;;;;;;8.15;6.18;;;;;;;;;;10406566;28;20343;-82
2023/08/02 13:03:48;;;;;;;11.00;6.23;;;;;;;;;;10418863;28;20037;-75
2023/08/02 13:08:48;;;;;;;8.63;5.63;;;;;;;;;;10402260;28;20310;-77
2023/08/02 13:13:48;;;;;;;7.50;6.37;;;;;;;;;;10424768;28;20299;-78
2023/08/02 13:18:49;;;;;;;8.87;6.50;;;;;;;;;;10420956;28;20299;-77
2023/08/02 13:23:49;;;;;;;11.77;7.60;;;;;;;;;;10413575;28;20041;-79
2023/08/02 13:28:49;;;;;;;12.40;8.00;;;;;;;;;;10435691;28;20293;-78
2023/08/02 13:33:51;;;;;;;11.37;7.03;;;;;;;;;;10423727;28;20878;-78
2023/08/02 13:38:51;;;;;;;13.02;7.43;;;;;;;;;;10417111;28;20039;-78
2023/08/02 13:43:52;;;;;;;13.00;7.90;;;;;;;;;;10399013;28;20041;-79
2023/08/02 13:48:53;;;;;;;11.87;7.53;;;;;;;;;;10410446;28;20044;-78
2023/08/02 13:53:53;;;;;;;10.73;7.80;;;;;;;;;;10421409;28;20779;-79
2023/08/02 13:58:53;;;;;;;12.17;7.87;;;;;;;;;;10418762;28;20084;-78
2023/08/02 14:03:54;;;;;;;11.60;8.15;;;;;;;;;;10414043;28;20028;-77
2023/08/02 14:08:54;;;;;;;11.03;7.33;;;;;;;;;;10414377;28;20117;-77
2023/08/02 14:13:55;;;;;;;14.15;8.85;;;;;;;;;;10416463;28;20291;-78
2023/08/02 14:18:55;;;;;;;14.83;9.47;;;;;;;;;;10410046;28;20037;-76
2023/08/02 14:23:56;;;;;;;14.93;9.63;;;;;;;;;;10414066;28;20025;-74
2023/08/02 14:28:56;;;;;;;13.35;9.02;;;;;;;;;;10416552;28;20029;-76
2023/08/02 14:33:56;;;;;;;14.40;9.83;;;;;;;;;;10415538;28;20045;-78
2023/08/02 14:38:57;;;;;;;12.93;9.10;;;;;;;;;;10394666;28;20048;-79
2023/08/02 14:43:57;;;;;;;11.60;8.27;;;;;;;;;;10411411;28;20551;-81
2023/08/02 14:48:59;;;;;;;13.15;8.52;;;;;;;;;;10414267;28;20092;-77
2023/08/02 14:54:05;;;;;;;11.23;8.55;;;;;;;;;;10474001;23;20067;-84
2023/08/02 14:59:05;;;;;;;15.35;9.20;;;;;;;;;;10504372;28;20373;-81
2023/08/02 15:04:05;;;;;;;11.85;7.95;;;;;;;;;;10459301;28;20104;-84
2023/08/02 15:09:06;;;;;;;13.30;9.10;;;;;;;;;;10453042;28;20030;-82
2023/08/02 15:14:06;;;;;;;12.13;8.05;;;;;;;;;;10453412;28;20179;-81
2023/08/02 15:19:12;;;;;;;15.13;9.13;;;;;;;;;;10423855;28;20045;-80
2023/08/02 15:24:12;;;;;;;11.82;7.43;;;;;;;;;;10424072;28;20749;-78
2023/08/02 15:29:15;;;;;;;12.87;8.83;;;;;;;;;;10413234;28;20037;-78
2023/08/02 15:34:17;;;;;;;10.18;7.25;;;;;;;;;;10411344;28;20037;-79
2023/08/02 15:39:17;;;;;;;13.40;8.27;;;;;;;;;;10434949;28;20141;-77
2023/08/02 15:44:17;;;;;;;14.37;9.07;;;;;;;;;;10409264;28;20041;-76
2023/08/02 15:49:18;;;;;;;12.97;8.87;;;;;;;;;;10456511;28;20083;-80
2023/08/02 15:54:18;;;;;;;12.53;9.20;;;;;;;;;;10491060;28;20029;-85
2023/08/02 15:59:19;;;;;;;13.73;9.30;;;;;;;;;;10479522;28;20348;-80
2023/08/02 16:04:19;;;;;;;12.40;8.83;;;;;;;;;;10474206;28;20071;-80
2023/08/02 16:09:19;;;;;;;12.60;9.43;;;;;;;;;;10440708;28;20041;-82
2023/08/02 16:14:20;;;;;;;11.63;8.33;;;;;;;;;;10435580;28;20043;-82
2023/08/02 16:19:20;;;;;;;12.40;9.43;;;;;;;;;;10428479;28;20131;-78
2023/08/02 16:24:20;;;;;;;12.02;9.23;;;;;;;;;;10430356;28;20034;-81
2023/08/02 16:29:21;;;;;;;16.63;9.75;;;;;;;;;;10440859;28;20117;-83
2023/08/02 16:34:23;;;;;;;16.65;10.45;;;;;;;;;;10418677;28;20043;-81
2023/08/02 16:39:24;;;;;;;17.63;11.43;;;;;;;;;;10413179;28;20488;-81
2023/08/02 16:44:25;;;;;;;14.15;9.88;;;;;;;;;;10407472;28;20040;-78
2023/08/02 16:49:26;;;;;;;13.10;10.00;;;;;;;;;;10430855;28;20044;-81
2023/08/02 16:54:26;;;;;;;13.52;9.15;;;;;;;;;;10432136;28;20744;-79
2023/08/02 16:59:27;;;;;;;14.10;8.98;;;;;;;;;;10426446;28;20033;-82
2023/08/02 17:04:27;;;;;;;13.48;9.55;;;;;;;;;;10434979;28;20037;-80
2023/08/02 17:09:28;;;;;;;11.93;8.00;;;;;;;;;;10435520;28;20040;-79
2023/08/02 17:14:28;;;;;;;10.77;8.20;;;;;;;;;;10425221;28;20107;-78
2023/08/02 17:19:29;;;;;;;10.20;8.33;;;;;;;;;;10430182;28;20049;-77
2023/08/02 17:24:29;;;;;;;13.30;8.37;;;;;;;;;;10423458;28;20310;-76
2023/08/02 17:29:30;;;;;;;11.10;8.43;;;;;;;;;;10420721;28;20278;-79
2023/08/02 17:34:30;;;;;;;13.60;8.63;;;;;;;;;;10415077;28;20280;-75
2023/08/02 17:39:31;;;;;;;13.97;8.27;;;;;;;;;;10429681;28;20127;-76
2023/08/02 17:44:31;;;;;;;10.87;8.30;;;;;;;;;;10423369;28;20918;-77
2023/08/02 17:49:31;;;;;;;12.00;8.37;;;;;;;;;;10412389;28;20049;-76
2023/08/02 17:54:32;;;;;;;12.67;8.20;;;;;;;;;;10427538;28;20072;-76
2023/08/02 17:59:34;;;;;;;12.43;8.73;;;;;;;;;;10449941;28;20044;-85
2023/08/02 18:04:34;;;;;;;8.82;6.75;;;;;;;;;;10436570;28;20032;-82
2023/08/02 18:09:35;;;;;;;12.20;8.17;;;;;;;;;;10443712;28;20821;-82
2023/08/02 18:14:35;;;;;;;14.03;9.57;;;;;;;;;;10454432;28;20453;-80
2023/08/02 18:19:38;;;;;;;13.00;8.83;;;;;;;;;;10472365;28;20299;-83
2023/08/02 18:24:39;;;;;;;11.57;5.30;;;;;;;;;;10479425;28;20038;-82
2023/08/02 18:29:40;;;;;;;5.57;2.53;;;;;;;;;;10548423;22;20063;-78
2023/08/02 18:34:40;;;;;;;5.32;2.63;;;;;;;;;;10532234;28;20052;-78
2023/08/02 18:39:41;;;;;;;4.67;2.17;;;;;;;;;;10533944;28;20035;-76
2023/08/02 18:44:42;;;;;;;3.28;1.90;;;;;;;;;;10535619;28;20297;-78
2023/08/02 18:49:42;;;;;;;2.70;1.73;;;;;;;;;;10534047;28;20497;-78
2023/08/02 18:54:43;;;;;;;3.43;2.00;;;;;;;;;;10538799;28;20040;-78
2023/08/02 18:59:43;;;;;;;2.80;1.90;;;;;;;;;;10536417;28;20404;-78
2023/08/02 19:04:44;;;;;;;2.60;2.13;;;;;;;;;;10521246;28;20036;-80
2023/08/02 19:09:44;;;;;;;3.15;2.35;;;;;;;;;;10476852;28;20173;-79
2023/08/02 19:14:45;;;;;;;3.03;2.30;;;;;;;;;;10505797;28;20059;-80
2023/08/02 19:19:47;;;;;;;3.38;1.50;;;;;;;;;;10486103;28;20043;-79
2023/08/02 19:24:48;;;;;;;3.13;1.57;;;;;;;;;;10496178;28;20037;-81
2023/08/02 19:29:49;;;;;;;2.40;1.23;;;;;;;;;;10497766;28;20447;-79
2023/08/02 19:34:51;;;;;;;3.05;1.65;;;;;;;;;;10492331;28;20036;-78
2023/08/02 19:39:52;;;;;;;3.50;1.80;;;;;;;;;;10504098;28;20043;-82
2023/08/02 19:44:53;;;;;;;2.10;1.48;;;;;;;;;;10512141;28;20050;-82
2023/08/02 19:49:53;;;;;;;5.80;2.00;;;;;;;;;;10513224;28;20040;-78
2023/08/02 19:54:53;;;;;;;3.97;2.00;;;;;;;;;;10504946;28;20152;-82
2023/08/02 19:59:57;;;;;;;3.22;2.10;;;;;;;;;;10493676;28;20101;-79
2023/08/02 20:04:57;;;;;;;;;;;;;;;;;;10499339;28;20032;-79
2023/08/02 20:09:59;;;;;;;3.58;2.20;;;;;;;;;;10499912;28;21076;-81
2023/08/02 20:15:00;;;;;;;2.63;1.87;;;;;;;;;;10497960;28;20039;-79
2023/08/02 20:20:02;;;;;;;3.47;2.10;;;;;;;;;;10500017;28;20078;-79
2023/08/02 20:25:04;;;;;;;4.30;2.13;;;;;;;;;;10479445;28;21011;-82
2023/08/02 20:30:12;;;;;;;3.25;2.65;;;;;;;;;;10496435;28;20472;-82
2023/08/02 20:35:12;;;;;;;2.65;2.30;;;;;;;;;;10494573;28;20055;-80
2023/08/02 20:40:12;;;;;;;3.73;2.13;;;;;;;;;;10484441;28;20032;-78
2023/08/02 20:45:14;;;;;;;4.70;2.63;;;;;;;;;;10484303;28;20273;-78
2023/08/02 20:50:15;;;;;;;5.00;2.85;;;;;;;;;;10501465;28;20040;-77
2023/08/02 20:55:17;;;;;;;4.30;3.30;;;;;;;;;;10500265;28;20406;-78
2023/08/02 21:00:18;;;;;;;4.60;3.10;;;;;;;;;;10519457;28;20765;-80
2023/08/02 21:05:18;;;;;;;6.70;3.00;;;;;;;;;;10501584;28;20036;-77
2023/08/02 21:10:18;;;;;;;4.13;3.00;;;;;;;;;;10481746;28;20037;-76
2023/08/02 21:15:19;;;;;;;3.43;2.80;;;;;;;;;;10497783;28;20335;-77
2023/08/02 21:20:28;;;;;;;5.00;3.00;;;;;;;;;;10481463;28;20040;-79
2023/08/02 21:25:31;;;;;;;4.57;2.67;;;;;;;;;;10492577;28;20297;-77
2023/08/02 21:30:31;;;;;;;3.90;2.50;;;;;;;;;;10496460;28;20047;-77
2023/08/02 21:35:32;;;;;;;6.18;3.70;;;;;;;;;;10497405;28;20047;-79
2023/08/02 21:40:33;;;;;;;4.93;3.63;;;;;;;;;;10482232;28;20056;-78
2023/08/02 21:45:34;;;;;;;4.53;3.97;;;;;;;;;;10482546;28;20290;-77
2023/08/02 21:50:35;;;;;;;6.53;3.70;;;;;;;;;;10482024;28;20039;-77
2023/08/02 21:55:37;;;;;;;7.40;5.18;;;;;;;;;;10501035;28;20032;-76
2023/08/02 22:00:37;;;;;;;6.30;4.70;;;;;;;;;;10500613;28;20135;-78
2023/08/02 22:05:40;;;;;;;7.57;4.67;;;;;;;;;;10499354;28;20044;-77
2023/08/02 22:10:42;;;;;;;7.97;4.93;;;;;;;;;;10495322;28;20034;-77
2023/08/02 22:15:43;;;;;;;7.45;4.45;;;;;;;;;;10477011;28;20358;-75
2023/08/02 22:20:43;;;;;;;5.85;4.00;;;;;;;;;;10494291;28;20070;-77
2023/08/02 22:25:43;;;;;;;5.53;3.70;;;;;;;;;;10490564;28;20044;-76
2023/08/02 22:30:44;;;;;;;4.37;3.67;;;;;;;;;;10503374;28;20068;-76
2023/08/02 22:35:44;;;;;;;5.40;3.53;;;;;;;;;;10481196;28;20302;-77
2023/08/02 22:40:45;;;;;;;6.40;3.10;;;;;;;;;;10496401;28;20048;-76
2023/08/02 22:45:46;;;;;;;5.03;2.90;;;;;;;;;;10497001;28;20286;-76
2023/08/02 22:50:46;;;;;;;4.03;2.75;;;;;;;;;;10497316;28;20039;-77
2023/08/02 22:55:46;;;;;;;7.72;2.88;;;;;;;;;;10478996;28;20047;-76
2023/08/02 23:00:47;;;;;;;4.57;2.73;;;;;;;;;;10478343;28;20055;-78
2023/08/02 23:05:47;;;;;;;6.00;2.47;;;;;;;;;;10478466;28;20286;-78
2023/08/02 23:10:48;;;;;;;5.83;2.73;;;;;;;;;;10498480;28;20032;-78
2023/08/02 23:15:48;;;;;;;5.30;2.53;;;;;;;;;;10493871;28;20973;-80
2023/08/02 23:20:50;;;;;;;7.05;3.65;;;;;;;;;;10461134;28;20067;-76
2023/08/02 23:25:56;;;;;;;5.55;3.03;;;;;;;;;;10492431;28;20503;-77
2023/08/02 23:30:59;;;;;;;4.53;3.03;;;;;;;;;;10476638;28;20785;-78
2023/08/02 23:35:59;;;;;;;5.35;3.10;;;;;;;;;;10495002;28;20048;-77
2023/08/02 23:41:00;;;;;;;5.87;3.40;;;;;;;;;;10490807;28;21285;-78
2023/08/02 23:46:00;;;;;;;8.70;2.95;;;;;;;;;;10496777;28;20896;-77
2023/08/02 23:51:00;;;;;;;5.43;3.03;;;;;;;;;;10498685;28;20039;-77
2023/08/02 23:56:01;;;;;;;3.63;2.83;;;;;;;;;;10478782;28;20306;-77
